Time;durP1;ratioP1;P1;durP2;ratioP2;P2;SDS_P1;SDS_P2;PMS_P1;PMS_P2;Temp;Humidity;BMP_temperature;BMP_pressure;BME280_temperature;BME280_humidity;BME280_pressure;Samples;Min_cycle;Max_cycle;Signal;HPM_P1;HPM_P2
2022/10/30 00:00:23;;;;;;;5.70;4.43;;;;;;;9.17;60.41;95589.66;5054907;28;20078;-69
2022/10/30 00:02:48;;;;;;;7.35;4.38;;;;;;;9.10;60.49;95590.97;5050947;28;20086;-69
2022/10/30 00:05:14;;;;;;;7.32;4.57;;;;;;;9.01;60.76;95592.41;5050599;28;20025;-70
2022/10/30 00:07:40;;;;;;;6.78;4.43;;;;;;;8.98;61.36;95578.81;5052812;28;20037;-69
2022/10/30 00:10:06;;;;;;;9.18;4.40;;;;;;;9.06;61.41;95579.16;5072808;28;20057;-69
2022/10/30 00:12:31;;;;;;;6.35;4.88;;;;;;;9.10;61.72;95575.44;5055111;28;20029;-70
2022/10/30 00:14:56;;;;;;;7.07;4.43;;;;;;;9.25;61.15;95584.81;5064375;28;20037;-69
2022/10/30 00:17:22;;;;;;;8.13;4.47;;;;;;;9.26;61.00;95586.47;5052806;28;20414;-69
2022/10/30 00:19:47;;;;;;;5.75;4.05;;;;;;;9.34;60.76;95579.00;5051725;28;20490;-70
2022/10/30 00:22:13;;;;;;;6.65;4.25;;;;;;;9.33;60.58;95567.00;5052642;28;20033;-69
2022/10/30 00:24:38;;;;;;;6.18;4.25;;;;;;;9.24;60.85;95561.56;5065454;28;20029;-69
2022/10/30 00:27:04;;;;;;;7.22;4.78;;;;;;;9.38;60.86;95575.28;5072623;28;20028;-70
2022/10/30 00:29:29;;;;;;;8.20;5.10;;;;;;;9.42;61.14;95582.84;5069808;28;20028;-70
2022/10/30 00:31:54;;;;;;;14.48;7.82;;;;;;;9.34;61.55;95565.22;5070589;28;20039;-70
2022/10/30 00:34:20;;;;;;;14.13;8.70;;;;;;;9.27;62.04;95572.56;5070962;28;20110;-70
2022/10/30 00:36:45;;;;;;;10.10;6.32;;;;;;;9.20;62.36;95571.31;5072333;28;20036;-70
2022/10/30 00:39:11;;;;;;;15.75;8.10;;;;;;;9.17;61.80;95572.34;5063333;28;20032;-70
2022/10/30 00:41:38;;;;;;;10.73;6.18;;;;;;;9.08;63.03;95578.13;5052948;28;20202;-70
2022/10/30 00:44:32;;;;;;;29.30;15.20;;;;;;;9.16;62.00;95587.97;5034459;28;20036;-69
2022/10/30 00:46:59;;;;;;;23.58;12.00;;;;;;;9.19;61.61;95580.00;5033739;28;20487;-70
2022/10/30 00:49:24;;;;;;;22.80;12.13;;;;;;;9.07;61.35;95570.44;5038681;28;20024;-69
2022/10/30 00:51:51;;;;;;;11.18;7.53;;;;;;;9.17;61.30;95572.34;5068695;28;20028;-69
2022/10/30 00:54:17;;;;;;;12.77;7.55;;;;;;;9.13;60.70;95575.22;5066014;28;20024;-70
2022/10/30 00:56:42;;;;;;;12.02;7.55;;;;;;;9.01;60.99;95574.25;5032046;28;20402;-70
2022/10/30 00:59:09;;;;;;;14.80;9.32;;;;;;;8.82;61.49;95571.19;5048520;28;20033;-70
2022/10/30 01:01:40;;;;;;;9.00;6.15;;;;;;;8.70;61.73;95570.22;5048498;28;20521;-70
2022/10/30 01:04:06;;;;;;;13.10;8.75;;;;;;;8.68;61.26;95564.28;5032190;28;20041;-69
2022/10/30 01:06:32;;;;;;;13.27;8.05;;;;;;;8.55;61.85;95573.75;5032303;28;20095;-69
2022/10/30 01:08:58;;;;;;;10.98;7.32;;;;;;;8.27;61.91;95559.91;5040125;28;20053;-69
2022/10/30 01:11:23;;;;;;;12.93;7.70;;;;;;;8.32;62.09;95570.81;5040305;28;20040;-70
2022/10/30 01:13:49;;;;;;;10.93;6.63;;;;;;;8.21;61.96;95555.13;5050346;28;20036;-69
2022/10/30 01:16:52;;;;;;;9.40;6.00;;;;;;;8.13;62.72;95571.09;5058989;28;20107;-70
2022/10/30 01:19:23;;;;;;;9.77;5.50;;;;;;;7.89;62.70;95555.34;5071416;28;20048;-69
2022/10/30 01:22:13;;;;;;;7.85;5.78;;;;;;;7.78;63.38;95547.41;5053894;28;20401;-69
2022/10/30 01:25:00;;;;;;;10.02;6.00;;;;;;;7.63;63.42;95543.13;5041761;28;20041;-69
2022/10/30 01:27:41;;;;;;;8.70;6.07;;;;;;;7.51;63.63;95534.34;5068929;28;20024;-69
2022/10/30 01:30:42;;;;;;;9.30;5.63;;;;;;;7.49;64.02;95531.84;5054306;28;20419;-70
2022/10/30 01:33:16;;;;;;;8.27;5.57;;;;;;;7.43;64.27;95532.22;5041933;28;20041;-69
2022/10/30 01:35:42;;;;;;;15.60;6.05;;;;;;;7.37;64.52;95532.56;5050715;28;20037;-69
2022/10/30 01:38:27;;;;;;;10.55;6.30;;;;;;;7.33;65.90;95542.28;5052290;28;20086;-70
2022/10/30 01:40:52;;;;;;;8.70;6.72;;;;;;;7.20;65.44;95518.06;5049836;28;20029;-70
2022/10/30 01:43:18;;;;;;;10.15;7.32;;;;;;;7.27;65.87;95532.28;5049967;28;20037;-69
2022/10/30 01:45:51;;;;;;;9.38;7.10;;;;;;;7.26;66.28;95524.63;5050987;28;20091;-70
2022/10/30 01:48:52;;;;;;;10.57;7.03;;;;;;;7.28;66.73;95527.94;5034039;28;20032;-69
2022/10/30 01:51:55;;;;;;;9.27;6.57;;;;;;;7.27;65.73;95541.78;5051034;28;20055;-69
2022/10/30 01:55:02;;;;;;;9.90;7.20;;;;;;;7.29;65.25;95542.53;5008960;28;20352;-70
2022/10/30 01:57:28;;;;;;;10.98;6.47;;;;;;;7.22;65.43;95539.47;5037675;28;20041;-69
2022/10/30 01:59:57;;;;;;;9.52;6.95;;;;;;;7.14;65.72;95523.59;5052750;28;20598;-70
2022/10/30 02:02:23;;;;;;;9.52;6.55;;;;;;;7.07;66.30;95522.25;5053013;28;20490;-69
2022/10/30 02:04:48;;;;;;;9.90;7.05;;;;;;;7.12;66.05;95515.91;5052844;28;20040;-69
2022/10/30 02:07:14;;;;;;;8.15;6.00;;;;;;;7.14;65.62;95515.84;5051707;28;20047;-69
2022/10/30 02:09:39;;;;;;;7.10;5.60;;;;;;;7.05;65.87;95503.44;5032708;28;20507;-69
2022/10/30 02:12:05;;;;;;;8.80;6.55;;;;;;;7.12;66.15;95515.09;5032960;28;20384;-69
2022/10/30 02:14:37;;;;;;;9.82;5.68;;;;;;;7.02;66.02;95501.03;5044243;28;20668;-71
2022/10/30 02:17:03;;;;;;;7.78;5.90;;;;;;;7.07;66.21;95519.69;5069460;28;20107;-69
2022/10/30 02:19:28;;;;;;;8.40;6.70;;;;;;;6.92;67.20;95514.47;5052681;28;20119;-70
2022/10/30 02:21:54;;;;;;;9.30;6.72;;;;;;;6.99;67.33;95522.69;5051887;28;20036;-70
2022/10/30 02:24:19;;;;;;;9.40;7.38;;;;;;;6.81;67.79;95513.44;5032685;28;20070;-69
2022/10/30 02:26:45;;;;;;;11.23;7.20;;;;;;;6.76;68.20;95518.03;5032828;28;20075;-69
2022/10/30 02:29:11;;;;;;;10.30;6.63;;;;;;;6.71;67.85;95523.44;5056433;28;20033;-70
2022/10/30 02:31:36;;;;;;;11.30;7.28;;;;;;;6.83;67.45;95527.09;5061743;28;20394;-69
2022/10/30 02:34:02;;;;;;;10.65;6.30;;;;;;;6.75;67.75;95521.53;5055785;28;20430;-70
2022/10/30 02:36:27;;;;;;;10.25;6.55;;;;;;;6.82;68.22;95534.00;5056131;28;20082;-69
2022/10/30 02:38:54;;;;;;;9.20;6.03;;;;;;;6.78;68.46;95535.09;5071602;28;20488;-70
2022/10/30 02:41:20;;;;;;;9.18;5.78;;;;;;;6.70;68.58;95527.78;5074317;28;20429;-69
2022/10/30 02:43:46;;;;;;;7.93;6.13;;;;;;;6.60;68.36;95526.66;5073170;28;20482;-69
2022/10/30 02:46:11;;;;;;;7.80;5.75;;;;;;;6.47;68.03;95518.75;5061964;28;20033;-69
2022/10/30 02:48:36;;;;;;;9.45;5.80;;;;;;;6.44;68.66;95515.50;5067009;28;20036;-69
2022/10/30 02:51:02;;;;;;;8.88;6.07;;;;;;;6.49;68.33;95526.38;5074125;28;20024;-69
2022/10/30 02:53:28;;;;;;;9.23;5.75;;;;;;;6.44;68.53;95538.72;5039618;28;20032;-69
2022/10/30 02:55:53;;;;;;;10.65;6.50;;;;;;;6.32;68.56;95535.06;5055381;28;20055;-69
2022/10/30 02:58:19;;;;;;;8.30;6.22;;;;;;;6.35;68.57;95541.78;5053086;28;20048;-69
2022/10/30 03:00:44;;;;;;;7.13;5.72;;;;;;;6.28;68.39;95532.75;5058936;28;20059;-69
2022/10/30 03:03:10;;;;;;;9.95;6.80;;;;;;;6.31;68.75;95535.97;5041829;28;20043;-69
2022/10/30 03:05:35;;;;;;;10.82;7.13;;;;;;;6.34;68.92;95537.56;5052799;28;20036;-69
2022/10/30 03:08:01;;;;;;;9.25;6.60;;;;;;;6.33;69.08;95528.16;5052679;28;20426;-70
2022/10/30 03:10:26;;;;;;;10.00;7.63;;;;;;;6.47;68.99;95538.56;5054446;28;20245;-69
2022/10/30 03:12:51;;;;;;;8.90;7.45;;;;;;;6.33;68.41;95541.91;5074118;28;20106;-69
2022/10/30 03:15:17;;;;;;;9.35;7.78;;;;;;;6.21;69.31;95542.53;5072603;28;20478;-69
2022/10/30 03:17:42;;;;;;;14.90;9.07;;;;;;;5.99;71.81;95550.59;5070754;28;20094;-69
2022/10/30 03:20:08;;;;;;;11.93;8.43;;;;;;;6.16;71.90;95549.72;5072489;28;20039;-69
2022/10/30 03:22:34;;;;;;;11.73;8.00;;;;;;;6.23;71.55;95553.63;5073803;28;20115;-70
2022/10/30 03:24:59;;;;;;;9.10;7.47;;;;;;;6.31;71.34;95560.97;5065204;28;20039;-69
2022/10/30 03:27:25;;;;;;;8.95;6.47;;;;;;;6.36;71.27;95562.38;5053806;28;20091;-69
2022/10/30 03:29:50;;;;;;;10.63;6.90;;;;;;;6.43;70.74;95560.28;5052404;28;20083;-69
2022/10/30 03:32:15;;;;;;;8.57;6.47;;;;;;;6.46;70.75;95544.63;5065494;28;20043;-69
2022/10/30 03:34:41;;;;;;;9.57;6.80;;;;;;;6.59;71.11;95561.09;5072570;28;20032;-69
2022/10/30 03:37:06;;;;;;;7.85;6.53;;;;;;;6.67;71.10;95553.78;5073204;28;20485;-69
2022/10/30 03:39:32;;;;;;;8.73;6.22;;;;;;;6.78;70.53;95544.59;5071121;28;20486;-69
2022/10/30 03:41:57;;;;;;;9.43;6.35;;;;;;;6.86;70.83;95530.34;5053320;28;20491;-69
2022/10/30 03:44:23;;;;;;;8.30;6.28;;;;;;;6.83;71.03;95527.09;5052041;28;20498;-69
2022/10/30 03:46:48;;;;;;;12.65;6.25;;;;;;;6.80;71.86;95522.94;5059627;28;20029;-69
2022/10/30 03:49:13;;;;;;;9.02;7.75;;;;;;;6.86;72.03;95529.50;5055249;28;20036;-70
2022/10/30 03:51:39;;;;;;;12.52;7.45;;;;;;;6.98;72.65;95536.53;5055304;28;20024;-69
2022/10/30 03:54:04;;;;;;;10.40;7.78;;;;;;;7.07;72.70;95540.34;5072480;28;20028;-69
2022/10/30 03:56:30;;;;;;;10.88;7.68;;;;;;;7.19;72.57;95533.63;5056602;28;20029;-69
2022/10/30 03:58:55;;;;;;;10.68;8.02;;;;;;;7.26;72.62;95527.19;5050996;28;20041;-69
2022/10/30 04:01:20;;;;;;;11.55;8.52;;;;;;;7.28;72.79;95530.53;5054130;28;20032;-69
2022/10/30 04:03:46;;;;;;;12.27;7.88;;;;;;;7.43;72.00;95532.22;5071628;28;20040;-70
2022/10/30 04:06:11;;;;;;;14.70;10.02;;;;;;;7.33;70.66;95515.59;5055243;28;20039;-69
2022/10/30 04:08:37;;;;;;;16.00;11.05;;;;;;;7.29;70.40;95524.44;5073032;28;20059;-69
2022/10/30 04:11:02;;;;;;;13.25;9.60;;;;;;;7.31;69.81;95515.66;5062142;28;20044;-70
2022/10/30 04:13:28;;;;;;;15.57;9.75;;;;;;;7.33;69.51;95515.59;5051689;28;20471;-69
2022/10/30 04:15:53;;;;;;;13.80;9.10;;;;;;;7.47;68.51;95502.69;5034975;28;20044;-69
2022/10/30 04:18:19;;;;;;;13.25;8.57;;;;;;;7.53;68.27;95510.06;5067145;28;20032;-70
2022/10/30 04:20:44;;;;;;;14.38;8.85;;;;;;;7.46;69.46;95513.09;5072970;28;20470;-69
2022/10/30 04:23:17;;;;;;;13.07;9.48;;;;;;;7.07;69.21;95510.16;5054685;28;20474;-69
2022/10/30 04:25:42;;;;;;;15.18;10.15;;;;;;;7.06;69.66;95508.53;5066294;28;20051;-70
2022/10/30 04:28:08;;;;;;;15.35;10.45;;;;;;;7.07;69.49;95523.09;5056234;28;20029;-70
2022/10/30 04:30:35;;;;;;;16.90;11.13;;;;;;;6.95;69.98;95531.56;5071223;28;20052;-69
2022/10/30 04:33:02;;;;;;;17.27;10.80;;;;;;;6.94;69.93;95529.91;5070279;28;20064;-69
2022/10/30 04:35:29;;;;;;;14.27;10.07;;;;;;;7.00;69.38;95524.38;5053492;28;20040;-69
2022/10/30 04:38:02;;;;;;;16.30;10.05;;;;;;;6.74;69.81;95522.44;5053348;28;20403;-69
2022/10/30 04:40:29;;;;;;;12.73;9.10;;;;;;;6.68;69.77;95511.53;5051040;28;20051;-70
2022/10/30 04:42:54;;;;;;;12.18;9.02;;;;;;;6.69;69.84;95527.88;5034545;28;20040;-70
2022/10/30 04:45:20;;;;;;;13.35;9.73;;;;;;;6.74;69.87;95537.94;5050919;28;20047;-70
2022/10/30 04:47:45;;;;;;;13.38;9.15;;;;;;;6.63;69.92;95534.22;5063455;28;20039;-69
2022/10/30 04:50:11;;;;;;;15.90;9.10;;;;;;;6.56;69.80;95538.03;5052095;28;20041;-69
2022/10/30 04:52:36;;;;;;;12.18;9.23;;;;;;;6.33;69.94;95528.16;5033163;28;20121;-69
2022/10/30 04:55:02;;;;;;;12.98;9.38;;;;;;;6.29;70.21;95537.81;5063225;28;20044;-69
2022/10/30 04:57:30;;;;;;;12.05;9.30;;;;;;;6.01;69.91;95497.19;5053567;28;20050;-69
2022/10/30 04:59:55;;;;;;;14.18;9.57;;;;;;;6.14;69.90;95547.22;5070685;28;20090;-70
2022/10/30 05:02:21;;;;;;;12.00;9.50;;;;;;;6.22;70.35;95551.97;5069498;28;20521;-69
2022/10/30 05:04:46;;;;;;;15.23;10.73;;;;;;;6.01;70.20;95547.03;5059476;28;20025;-69
2022/10/30 05:07:12;;;;;;;14.98;10.85;;;;;;;5.99;70.38;95561.78;5060049;28;20036;-69
2022/10/30 05:09:37;;;;;;;15.55;11.23;;;;;;;6.02;70.34;95563.34;5055554;28;20119;-69
2022/10/30 05:12:03;;;;;;;18.45;12.23;;;;;;;5.98;70.48;95549.78;5058384;28;20039;-70
2022/10/30 05:14:31;;;;;;;14.75;11.43;;;;;;;5.97;70.76;95558.44;5059566;28;20475;-69
2022/10/30 05:16:57;;;;;;;16.30;11.82;;;;;;;5.81;70.78;95536.91;5056889;28;20028;-69
2022/10/30 05:19:22;;;;;;;16.55;11.82;;;;;;;5.86;70.62;95540.09;5055974;28;20060;-69
2022/10/30 05:21:47;;;;;;;16.35;11.35;;;;;;;5.73;71.12;95545.03;5060855;28;20505;-69
2022/10/30 05:24:13;;;;;;;18.58;12.73;;;;;;;5.75;70.97;95548.38;5061388;28;20032;-69
2022/10/30 05:26:38;;;;;;;18.70;13.18;;;;;;;5.64;71.32;95549.84;5059143;28;20036;-69
2022/10/30 05:29:04;;;;;;;14.05;10.63;;;;;;;5.69;71.20;95563.34;5049993;28;20036;-69
2022/10/30 05:31:29;;;;;;;17.85;12.43;;;;;;;5.76;71.15;95562.91;5058455;28;20730;-69
2022/10/30 05:33:55;;;;;;;16.83;13.20;;;;;;;5.60;71.53;95557.75;5059982;28;20053;-70
2022/10/30 05:36:20;;;;;;;19.05;12.73;;;;;;;5.70;71.60;95565.81;5043437;28;20482;-70
2022/10/30 05:38:46;;;;;;;18.30;11.98;;;;;;;5.81;71.52;95563.53;5056056;28;20036;-70
2022/10/30 05:41:11;;;;;;;15.05;11.35;;;;;;;5.67;71.77;95555.69;5062947;28;20545;-70
2022/10/30 05:43:37;;;;;;;14.80;10.95;;;;;;;5.68;72.04;95567.63;5058638;28;20036;-70
2022/10/30 05:46:02;;;;;;;14.35;10.23;;;;;;;5.74;72.14;95564.78;5053699;28;20122;-70
2022/10/30 05:48:28;;;;;;;20.63;12.93;;;;;;;5.84;71.73;95565.09;5061056;28;20081;-70
2022/10/30 05:50:56;;;;;;;50.70;23.88;;;;;;;5.78;72.29;95563.69;5058332;28;20388;-70
2022/10/30 05:53:22;;;;;;;77.82;31.17;;;;;;;5.88;72.28;95561.47;5058628;28;20067;-70
2022/10/30 05:55:48;;;;;;;97.55;36.30;;;;;;;5.90;72.15;95553.63;5050414;28;20510;-71
2022/10/30 05:58:13;;;;;;;100.35;40.40;;;;;;;5.85;72.36;95558.19;5037382;28;20029;-72
2022/10/30 06:00:39;;;;;;;150.10;53.28;;;;;;;5.95;72.37;95562.00;5026563;28;20410;-70
2022/10/30 06:03:10;;;;;;;90.35;37.20;;;;;;;6.13;71.57;95566.19;5058678;28;20029;-70
2022/10/30 06:05:36;;;;;;;80.32;34.50;;;;;;;6.08;71.50;95560.44;5053927;28;20064;-70
2022/10/30 06:08:02;;;;;;;62.45;27.85;;;;;;;6.03;71.79;95550.38;5059047;28;20067;-70
2022/10/30 06:10:28;;;;;;;56.00;25.63;;;;;;;6.09;72.04;95550.97;5041001;28;20036;-70
2022/10/30 06:13:01;;;;;;;51.60;22.85;;;;;;;6.21;71.44;95543.41;5059633;28;20032;-70
2022/10/30 06:15:27;;;;;;;42.42;21.77;;;;;;;6.07;72.04;95547.63;5054356;28;20119;-70
2022/10/30 06:17:52;;;;;;;45.65;23.92;;;;;;;6.11;72.20;95554.28;5063252;28;20032;-70
2022/10/30 06:20:18;;;;;;;23.50;13.80;;;;;;;6.02;73.10;95555.63;5064687;28;20468;-69
2022/10/30 06:22:58;;;;;;;15.68;10.73;;;;;;;6.11;73.10;95555.13;5065209;28;20040;-70
2022/10/30 06:25:23;;;;;;;12.25;9.25;;;;;;;6.12;73.28;95546.44;5065303;28;20036;-70
2022/10/30 06:27:49;;;;;;;12.55;8.50;;;;;;;6.34;73.21;95553.03;5060625;28;20037;-70
2022/10/30 06:30:15;;;;;;;18.38;10.05;;;;;;;6.30;73.15;95539.50;5065083;28;20043;-71
2022/10/30 06:32:40;;;;;;;15.65;9.88;;;;;;;6.47;72.72;95551.47;5062201;28;20115;-70
2022/10/30 06:35:07;;;;;;;23.35;13.25;;;;;;;6.63;72.58;95562.63;5065403;28;20021;-70
2022/10/30 06:37:32;;;;;;;29.65;16.38;;;;;;;6.66;72.16;95551.28;5064832;28;20067;-70
2022/10/30 06:39:58;;;;;;;16.77;11.25;;;;;;;6.94;71.69;95566.06;5058253;28;20024;-70
2022/10/30 06:42:23;;;;;;;17.23;11.27;;;;;;;7.13;71.01;95546.00;5064027;28;20029;-70
2022/10/30 06:44:49;;;;;;;15.15;10.27;;;;;;;7.56;70.19;95553.84;5064131;28;20082;-70
2022/10/30 06:47:14;;;;;;;14.35;10.00;;;;;;;8.04;68.76;95544.03;5061105;28;20394;-70
2022/10/30 06:49:40;;;;;;;14.07;9.15;;;;;;;8.67;66.66;95539.34;5057148;28;20040;-70
2022/10/30 06:52:05;;;;;;;17.73;10.80;;;;;;;8.91;65.61;95549.88;5062955;28;20554;-70
2022/10/30 06:54:31;;;;;;;15.90;10.20;;;;;;;8.96;65.12;95553.00;5064670;28;20036;-70
2022/10/30 06:56:56;;;;;;;18.23;11.55;;;;;;;9.30;64.82;95548.19;5047013;28;20029;-70
2022/10/30 06:59:22;;;;;;;20.30;12.23;;;;;;;9.52;64.10;95551.03;5046057;28;20041;-69
2022/10/30 07:01:47;;;;;;;21.30;14.27;;;;;;;9.61;63.73;95546.97;5053218;28;20029;-69
2022/10/30 07:04:13;;;;;;;17.52;11.45;;;;;;;9.68;63.34;95550.81;5056036;28;20093;-73
2022/10/30 07:06:38;;;;;;;11.85;9.35;;;;;;;9.98;62.79;95567.84;5056232;28;20052;-70
2022/10/30 07:09:03;;;;;;;16.80;9.02;;;;;;;10.62;60.95;95573.78;5057575;28;20063;-69
2022/10/30 07:11:29;;;;;;;14.52;9.10;;;;;;;11.67;57.76;95560.94;5044146;28;20021;-69
2022/10/30 07:13:54;;;;;;;13.63;9.35;;;;;;;11.92;56.58;95565.97;5042214;28;20395;-69
2022/10/30 07:16:20;;;;;;;15.32;10.38;;;;;;;12.21;55.51;95552.50;5058769;28;20029;-70
2022/10/30 07:18:45;;;;;;;10.73;9.18;;;;;;;12.91;53.80;95556.53;5062076;28;20025;-69
2022/10/30 07:21:11;;;;;;;14.20;9.05;;;;;;;14.37;49.70;95549.66;5060555;28;20199;-71
2022/10/30 07:23:36;;;;;;;10.55;8.65;;;;;;;15.06;48.76;95544.47;5045224;28;20036;-73
2022/10/30 07:26:01;;;;;;;11.20;8.90;;;;;;;15.84;46.18;95541.81;5060624;28;20055;-71
2022/10/30 07:28:27;;;;;;;14.50;8.82;;;;;;;16.15;44.97;95536.34;5060071;28;20025;-71
2022/10/30 07:30:52;;;;;;;13.32;8.10;;;;;;;17.09;42.68;95533.50;5059981;28;20048;-71
2022/10/30 07:33:18;;;;;;;14.27;7.80;;;;;;;17.83;41.69;95520.03;5059365;28;20032;-71
2022/10/30 07:35:43;;;;;;;11.43;7.57;;;;;;;18.64;39.26;95542.44;5061544;28;20041;-69
2022/10/30 07:38:10;;;;;;;12.55;8.45;;;;;;;18.91;38.62;95528.22;5061565;28;20074;-70
2022/10/30 07:40:35;;;;;;;12.55;7.57;;;;;;;19.51;37.78;95528.97;5044903;28;20064;-71
2022/10/30 07:43:01;;;;;;;13.85;8.23;;;;;;;20.03;36.74;95518.91;5062653;28;20056;-70
2022/10/30 07:45:27;;;;;;;14.13;7.88;;;;;;;20.38;35.98;95526.56;5044926;28;20048;-71
2022/10/30 07:47:53;;;;;;;14.15;7.63;;;;;;;20.30;36.30;95536.13;5060187;28;20036;-71
2022/10/30 07:50:18;;;;;;;11.75;7.30;;;;;;;19.61;37.86;95525.19;5032608;28;20024;-72
2022/10/30 07:52:44;;;;;;;10.00;8.45;;;;;;;19.03;38.92;95535.81;5059319;28;20094;-71
2022/10/30 07:55:09;;;;;;;10.90;7.70;;;;;;;18.70;39.16;95522.56;5062385;28;20024;-71
2022/10/30 07:57:36;;;;;;;13.10;7.82;;;;;;;18.15;41.15;95510.66;5058735;28;20036;-72
2022/10/30 08:00:06;;;;;;;9.85;7.53;;;;;;;17.98;41.42;95516.81;5044406;28;20032;-71
2022/10/30 08:02:31;;;;;;;9.90;7.20;;;;;;;17.58;42.56;95492.72;5055956;28;20052;-72
2022/10/30 08:04:57;;;;;;;10.40;7.10;;;;;;;17.39;42.58;95491.13;5061424;28;20033;-71
2022/10/30 08:07:22;;;;;;;10.02;7.18;;;;;;;17.39;42.90;95493.75;5059027;28;20033;-71
2022/10/30 08:09:48;;;;;;;11.05;7.50;;;;;;;17.31;42.98;95493.66;5061611;28;20502;-71
2022/10/30 08:12:14;;;;;;;9.80;7.43;;;;;;;16.90;43.50;95493.31;5060509;28;20078;-70
2022/10/30 08:14:39;;;;;;;11.55;7.20;;;;;;;16.75;43.63;95484.28;5044976;28;20453;-71
2022/10/30 08:17:06;;;;;;;10.77;7.32;;;;;;;16.64;44.50;95498.44;5060137;28;20035;-71
2022/10/30 08:19:32;;;;;;;10.98;8.38;;;;;;;16.64;44.79;95493.19;5061780;28;20053;-78
2022/10/30 08:21:58;;;;;;;15.70;11.75;;;;;;;16.46;45.03;95484.44;5041384;28;20082;-74
2022/10/30 08:24:24;;;;;;;18.45;11.55;;;;;;;16.03;45.90;95478.03;5045051;28;20119;-73
2022/10/30 08:26:52;;;;;;;15.88;10.73;;;;;;;16.16;46.00;95482.94;5055569;28;20037;-72
2022/10/30 08:29:18;;;;;;;14.55;10.25;;;;;;;16.13;46.76;95480.63;5062775;28;20111;-73
2022/10/30 08:31:43;;;;;;;19.55;9.90;;;;;;;16.28;46.84;95484.41;5043408;28;20123;-70
2022/10/30 08:34:09;;;;;;;15.18;9.70;;;;;;;15.99;47.21;95440.84;5058742;28;20045;-72
2022/10/30 08:36:34;;;;;;;13.93;9.65;;;;;;;16.24;47.22;95465.53;5058400;28;20104;-72
2022/10/30 08:39:00;;;;;;;12.90;9.32;;;;;;;16.40;46.99;95467.50;5046290;28;20029;-73
2022/10/30 08:41:25;;;;;;;17.85;9.48;;;;;;;16.49;47.48;95485.00;5057103;28;20025;-72
2022/10/30 08:43:51;;;;;;;14.20;9.52;;;;;;;16.63;46.90;95482.81;5059582;28;20040;-73
2022/10/30 08:46:16;;;;;;;14.13;8.88;;;;;;;16.09;48.68;95480.91;5057995;28;20029;-71
2022/10/30 08:48:42;;;;;;;12.80;7.82;;;;;;;16.07;49.01;95477.63;5059291;28;20098;-72
2022/10/30 08:51:07;;;;;;;10.23;8.32;;;;;;;16.37;48.48;95480.09;5058048;28;20021;-70
2022/10/30 08:53:33;;;;;;;9.88;7.97;;;;;;;16.42;48.46;95478.69;5058987;28;20040;-73
2022/10/30 08:55:58;;;;;;;13.70;9.48;;;;;;;16.67;47.85;95477.16;5060198;28;20037;-70
2022/10/30 08:58:23;;;;;;;14.43;8.63;;;;;;;16.81;47.04;95475.84;5060549;28;20459;-71
2022/10/30 09:00:49;;;;;;;11.70;7.97;;;;;;;16.92;46.49;95470.38;5059431;28;20029;-71
2022/10/30 09:03:14;;;;;;;11.52;8.80;;;;;;;16.93;46.87;95450.19;5058983;28;20044;-71
2022/10/30 09:05:40;;;;;;;12.20;8.63;;;;;;;17.07;45.90;95446.22;5060739;28;20029;-71
2022/10/30 09:08:05;;;;;;;12.55;8.70;;;;;;;17.15;45.75;95438.41;5059119;28;20082;-69
2022/10/30 09:10:31;;;;;;;11.52;9.10;;;;;;;17.30;45.57;95452.66;5059306;28;20045;-75
2022/10/30 09:12:57;;;;;;;12.32;8.85;;;;;;;17.29;45.49;95444.91;5059948;28;20041;-70
2022/10/30 09:15:23;;;;;;;15.32;8.95;;;;;;;17.39;45.63;95449.09;5057869;28;20040;-70
2022/10/30 09:17:56;;;;;;;14.45;9.15;;;;;;;17.40;45.93;95461.25;5057988;28;20410;-70
2022/10/30 09:20:22;;;;;;;9.70;7.70;;;;;;;17.46;45.15;95451.09;5059155;28;20067;-71
2022/10/30 09:22:47;;;;;;;13.20;8.18;;;;;;;17.52;45.16;95451.28;5058611;28;20032;-70
2022/10/30 09:25:13;;;;;;;17.38;9.27;;;;;;;17.42;45.67;95442.72;5060522;28;20043;-71
2022/10/30 09:27:38;;;;;;;11.38;7.78;;;;;;;17.55;44.93;95442.28;5056572;28;20037;-71
2022/10/30 09:30:04;;;;;;;12.85;8.27;;;;;;;17.61;44.37;95431.19;5063801;28;20037;-73
2022/10/30 09:32:30;;;;;;;12.90;8.50;;;;;;;17.57;45.13;95449.03;5068353;28;20052;-72
2022/10/30 09:34:55;;;;;;;14.70;9.13;;;;;;;17.48;45.18;95446.53;5053723;28;20486;-72
2022/10/30 09:37:22;;;;;;;12.55;8.50;;;;;;;17.39;45.43;95424.66;5059279;28;20024;-72
2022/10/30 09:39:47;;;;;;;11.30;8.10;;;;;;;17.41;45.58;95427.91;5068128;28;20056;-74
2022/10/30 09:42:37;;;;;;;10.93;7.93;;;;;;;17.61;44.96;95439.88;5046624;28;20059;-76
2022/10/30 09:45:27;;;;;;;14.80;9.30;;;;;;;17.65;44.72;95435.97;5058382;28;20110;-74
2022/10/30 09:48:14;;;;;;;14.48;9.13;;;;;;;17.50;44.93;95432.28;5068936;28;20505;-74
2022/10/30 09:51:12;;;;;;;14.65;9.82;;;;;;;17.42;45.11;95419.09;5057993;28;20040;-73
2022/10/30 09:53:56;;;;;;;15.45;8.77;;;;;;;17.72;44.82;95422.19;5057475;28;20527;-73
2022/10/30 09:56:54;;;;;;;12.48;9.00;;;;;;;17.62;44.63;95414.44;5046466;28;20017;-73
2022/10/30 09:59:29;;;;;;;14.02;8.75;;;;;;;17.58;44.54;95413.94;5046405;28;20052;-73
2022/10/30 10:02:02;;;;;;;12.65;8.57;;;;;;;17.50;44.79;95399.94;5047582;28;20364;-73
2022/10/30 10:04:39;;;;;;;11.23;8.32;;;;;;;17.74;44.28;95389.53;5047498;28;20052;-73
2022/10/30 10:07:37;;;;;;;10.85;8.55;;;;;;;17.94;44.30;95399.81;5047600;28;20068;-73
2022/10/30 10:10:06;;;;;;;13.30;8.15;;;;;;;18.01;44.40;95392.97;5046981;28;20053;-73
2022/10/30 10:12:42;;;;;;;13.65;8.38;;;;;;;18.20;43.97;95387.44;5048945;28;20110;-74
2022/10/30 10:15:18;;;;;;;11.98;8.30;;;;;;;18.20;43.55;95371.66;5047545;28;20121;-74
2022/10/30 10:17:44;;;;;;;12.43;8.10;;;;;;;18.14;43.32;95346.03;5048108;28;20049;-73
2022/10/30 10:20:36;;;;;;;11.48;8.38;;;;;;;18.25;43.29;95372.03;5047354;28;20061;-73
2022/10/30 10:23:09;;;;;;;11.48;8.05;;;;;;;18.26;43.25;95372.84;5033137;28;20020;-73
2022/10/30 10:25:34;;;;;;;9.80;8.25;;;;;;;18.48;42.82;95368.78;5031398;28;20098;-73
2022/10/30 10:28:31;;;;;;;10.95;8.38;;;;;;;18.59;42.38;95355.31;5048953;28;20032;-73
2022/10/30 10:31:25;;;;;;;11.23;7.80;;;;;;;18.55;42.92;95340.81;5046700;28;20147;-73
2022/10/30 10:34:02;;;;;;;11.82;7.47;;;;;;;18.88;42.59;95341.69;5049467;28;20406;-73
2022/10/30 10:36:38;;;;;;;15.70;7.78;;;;;;;18.92;42.09;95332.47;5050612;28;20021;-73
2022/10/30 10:39:22;;;;;;;10.80;7.30;;;;;;;19.02;41.76;95331.47;5049339;28;20037;-73
2022/10/30 10:41:58;;;;;;;11.93;7.95;;;;;;;19.11;41.36;95330.47;5050710;28;20028;-73
2022/10/30 10:44:47;;;;;;;11.77;7.05;;;;;;;19.29;40.86;95327.66;5049247;28;20071;-73
2022/10/30 10:47:34;;;;;;;10.88;7.30;;;;;;;19.42;40.90;95327.94;5050565;28;20521;-74
2022/10/30 10:50:23;;;;;;;14.73;8.55;;;;;;;19.43;40.83;95326.94;5053981;28;20453;-74
2022/10/30 10:53:06;;;;;;;12.68;8.63;;;;;;;19.45;40.75;95319.72;5052682;28;20075;-74
2022/10/30 10:55:35;;;;;;;11.27;8.20;;;;;;;19.54;40.05;95318.69;5053235;28;20422;-74
2022/10/30 10:58:15;;;;;;;9.27;6.80;;;;;;;19.66;39.61;95318.34;5053146;28;20048;-74
2022/10/30 11:00:41;;;;;;;12.47;6.10;;;;;;;19.66;39.07;95313.88;5053399;28;20029;-74
2022/10/30 11:03:45;;;;;;;7.50;5.93;;;;;;;19.71;38.91;95316.84;5052898;28;20669;-74
2022/10/30 11:06:18;;;;;;;7.25;5.53;;;;;;;19.76;38.87;95305.78;5051673;28;20124;-74
2022/10/30 11:08:43;;;;;;;9.93;5.75;;;;;;;19.86;38.22;95309.88;5051553;28;20053;-74
2022/10/30 11:11:09;;;;;;;15.10;8.57;;;;;;;19.90;37.58;95302.41;5035322;28;20042;-74
2022/10/30 11:13:36;;;;;;;15.70;11.10;;;;;;;19.89;37.36;95292.03;5033036;28;20037;-74
2022/10/30 11:16:20;;;;;;;14.95;9.98;;;;;;;20.07;37.53;95288.16;5032811;28;20029;-75
2022/10/30 11:18:45;;;;;;;10.75;6.88;;;;;;;19.97;37.96;95269.09;5032792;28;20037;-74
2022/10/30 11:21:16;;;;;;;10.73;6.95;;;;;;;20.17;37.99;95287.94;5032708;28;20091;-75
2022/10/30 11:23:45;;;;;;;;;;;;;;;20.23;37.65;95283.78;5033094;28;20041;-74
2022/10/30 11:26:17;;;;;;;9.45;6.07;;;;;;;20.31;37.69;95273.19;5032981;28;19913;-74
2022/10/30 11:28:56;;;;;;;9.48;5.50;;;;;;;20.37;37.79;95261.91;5033737;28;20558;-74
2022/10/30 11:31:39;;;;;;;13.75;6.03;;;;;;;20.39;37.56;95265.19;5033027;28;20026;-74
2022/10/30 11:34:13;;;;;;;10.00;5.72;;;;;;;20.42;37.02;95259.56;5033082;28;20503;-74
2022/10/30 11:36:39;;;;;;;10.32;6.13;;;;;;;20.55;37.61;95258.16;5032307;28;20029;-74
2022/10/30 11:39:31;;;;;;;9.27;6.60;;;;;;;20.65;37.32;95259.56;5033543;28;20033;-75